Terminal Aerodrome Forecast
Issued by NWS

Home | Current Version | Previous Version | Text Only | Print | Product List | Glossary On
Versions: 1 2 3 4 5 6 7 8 9 10 11 12 13 14 15 16 17 18 19 20
029
FTUS43 KILX 181120
TAFBMI
TAF
KBMI 181120Z 1812/1912 28005KT P6SM SCT250
     FM181500 28010KT P6SM SCT250
     FM190200 19005KT P6SM VCTS SCT060CB BKN200
     FM190600 24004KT P6SM SCT050 BKN120=

USA.gov is the U.S. government's official web portal to all federal, state and local government web resources and services.